x

North Equatorial Two - 890 Nm East Of Martinique (41041) Wave Buoy

5:50am - Sun 30th Aug 2015 All times are UTC.

  • Sig Wave height 3.9ft
  • Swell Direction
  • Peak Period 8s
  • Average Period 6s
  • Wind
    11mph
  • Sea Temp 82°f
  • Air Temp 80°f
  • Sea Pressure 1013.8mb

More Historic Weather Station data

Upgrade to MSW Pro to gain access to the past 30 days of data for over 8000 Wavebouys and Weather Stations around the globe.

Join Pro

Comparision Forecast

View Surf forecast
   
Sun 08/30 5:50am 4ft 8s 6s 11
mph
1013.8mb 82f 80f
4:50am 4ft 8s 6s 9 11 mph 1014.3mb 82f 81f
3:50am 4ft 7s 6s 9 11 mph 1014.9mb 82f 81f
2:50am 4ft 7s 6s 9 11 mph 1015.5mb 82f 81f
1:50am 4ft 7s 5s 9 11 mph 1016.2mb 82f 81f
12:50am 4.5ft 7s 5s 9 11 mph 1016.3mb 82f 81f
Sat 08/29 11:50pm 4ft 6s 5s 9 11 mph 1015.7mb 82f 80f
10:50pm 4ft 7s 6s 16 20 mph 1015.2mb 82f 78f
9:50pm 4.5ft 8s 5s 13
mph
1014.5mb 82f 80f
8:50pm 4.5ft 7s 6s 11 13 mph 1014.2mb 82f 80f
7:50pm 4.5ft 7s 5s 11
mph
1013.9mb 82f 80f
6:50pm 4.5ft 6s 5s 13 16 mph 1013.8mb 82f 80f
5:50pm 4.5ft 8s 5s 11 13 mph 1014.1mb 82f 81f
4:50pm 4.5ft 8s 6s 11 13 mph 1014.4mb 82f 81f
3:50pm 4.5ft 8s 6s 11 13 mph 1015.2mb 82f 81f
2:50pm 4.5ft 7s 5s 13 16 mph 1015.6mb 82f 81f
1:50pm 4.5ft 8s 5s 13 16 mph 1015.9mb 82f 81f
12:50pm 4.5ft 7s 5s 13 16 mph 1015.8mb 82f 81f
11:50am 4.5ft 8s 5s 13 18 mph 1015.6mb 82f 81f
10:50am 4.5ft 8s 5s 13 18 mph 1015.2mb 82f 81f
9:50am 4.5ft 7s 6s 13 16 mph 1014.8mb 82f 81f
8:50am 4.5ft 5s 6s 16 18 mph 1014.3mb 82f 80f
7:50am 4.5ft 8s 6s 11 16 mph 1013.9mb 82f 80f
6:50am 4.5ft 8s 6s 13 16 mph 1013.4mb 82f 80f
5:50am 4.5ft 9s 6s 13 16 mph 1013.6mb 82f 80f
4:50am 4.5ft 8s 6s 11 13 mph 1014.1mb 82f 80f
3:50am 4.5ft 8s 6s 13 16 mph 1014.8mb 82f 81f
2:50am 4.5ft 9s 6s 13 16 mph 1015.4mb 82f 81f
1:50am 4.5ft 8s 6s 13 16 mph 1015.8mb 82f 81f
12:50am 4.5ft 8s 6s 16 18 mph 1016mb 82f 81f
Fri 08/28 11:50pm 4.5ft 9s 6s 11 13 mph 1015.9mb 82f 81f
10:50pm 4.5ft 9s 6s 13 16 mph 1015.2mb 82f 81f
9:50pm 4.5ft 9s 6s 13 16 mph 1014.4mb 82f 82f
8:50pm 4.5ft 9s 6s 13 16 mph 1013.9mb 82f 82f
7:50pm 4.5ft 9s 6s 13
mph
1013.7mb 82f 82f
6:50pm 4.5ft 9s 6s 11 13 mph 1013.7mb 82f 82f
5:50pm 4.5ft 9s 6s 13 16 mph 1013.9mb 82f 82f
4:50pm 5ft 8s 6s 13 16 mph 1013.9mb 82f 82f
3:50pm 4.5ft 8s 6s 16 18 mph 1014.4mb 82f 81f
2:50pm 5ft 9s 6s 16 18 mph 1014.8mb 82f 81f
1:50pm 5ft 14s 6s 13 16 mph 1015mb 82f 81f
12:50pm 5ft 8s 6s 13 16 mph 1015mb 82f 81f
11:50am 5ft 9s 6s 13 16 mph 1014.5mb 82f 81f
10:50am 6ft 8s 6s 13 16 mph 1013.9mb 81f 81f
9:50am 5ft 8s 6s 16 18 mph 1013.4mb 81f 81f
8:50am 5.5ft 9s 6s 13 16 mph 1013mb 81f 81f
7:50am 5.5ft 9s 6s 13 16 mph 1012.5mb 82f 80f
6:50am 5ft 9s 6s 13 16 mph 1012.3mb 82f 80f
5:50am 5ft 8s 6s 11 16 mph 1012.6mb 82f 80f
4:50am 5.5ft 8s 6s 13 16 mph 1013.2mb 82f 81f
3:50am 6ft 8s 6s 16 20 mph 1013.8mb 82f 80f
2:50am 5ft 8s 6s 13 16 mph 1014.7mb 82f 80f
1:50am 5ft 8s 6s 13 16 mph 1015mb 82f 80f
Thu 08/27 11:50pm 6ft 8s 6s 18 20 mph 1014.3mb 82f 79f
10:50pm 5ft 7s 6s 18 20 mph 1013.5mb 82f 81f
9:50pm 5ft 8s 5s 13 16 mph 1012.9mb 82f 80f
8:50pm 5ft 8s 6s 16 18 mph 1012.1mb 82f 81f
7:50pm 5.5ft 9s 6s 16 18 mph 1011.5mb 82f 81f
6:50pm 5ft 8s 6s 16 18 mph 1011.4mb 82f 81f
5:50pm 5.5ft 9s 6s 20 25 mph 1011.7mb 82f 80f
4:50pm 5.5ft 10s 6s 16 18 mph 1012.2mb 82f 81f
3:50pm 5.5ft 9s 6s 18 20 mph 1012.7mb 82f 81f
2:50pm 5ft 9s 6s 16 18 mph 1013.6mb 82f 81f
1:50pm 5ft 9s 6s 16 18 mph 1013.7mb 82f 81f
12:50pm 5ft 8s 6s 16 20 mph 1013.4mb 82f 81f
11:50am 5ft 9s 6s 16 18 mph 1013mb 81f 80f
10:50am 5ft 9s 5s 13 16 mph 1012.7mb 81f 80f
9:50am 5ft 10s 6s 16 20 mph 1011.9mb 81f 80f
8:50am 5ft 9s 6s 13 18 mph 1011.9mb 81f 79f
7:50am 5ft 10s 6s 13 16 mph 1011.8mb 81f 78f
6:50am 5.5ft 10s 6s 16 18 mph 1012mb 81f 78f
5:50am 5ft 9s 6s 20 25 mph 1012.1mb 82f 77f
4:50am 5ft 10s 6s 13 16 mph 1013.1mb 82f 79f
3:50am 5.5ft 10s 6s 13 16 mph 1013.5mb 81f 80f
2:50am 5ft 10s 6s 13 16 mph 1014.3mb 81f 80f
1:50am 4.5ft 9s 6s 13 16 mph 1014.8mb 82f 80f
12:50am 5ft 8s 6s 16 18 mph 1014.9mb 82f 80f
Wed 08/26 11:50pm 5ft 10s 6s 16 18 mph 1014.6mb 82f 80f
10:50pm 4.5ft 10s 6s 11 13 mph 1014.2mb 82f 81f
9:50pm 5ft 10s 6s 11 13 mph 1013.7mb 82f 81f
8:50pm 6ft 10s 7s 13 16 mph 1013.2mb 82f 81f
7:50pm 5ft 9s 6s 13 16 mph 1012.9mb 82f 81f
6:50pm 6ft 9s 7s 16 18 mph 1012.7mb 82f 81f
5:50pm 6ft 10s 7s 13 18 mph 1013mb 82f 81f
4:50pm 5.5ft 10s 6s 11 13 mph 1013.6mb 82f 81f
3:50pm 6ft 9s 7s 11 13 mph 1014.3mb 82f 80f
2:50pm 6ft 8s 6s 11 13 mph 1015mb 82f 80f
1:50pm 6ft 10s 6s 11 13 mph 1015.6mb 82f 81f
12:50pm 6ft 8s 6s 11 16 mph 1015.7mb 81f 80f
11:50am 6ft 9s 6s 13 16 mph 1015.2mb 81f 80f
10:50am 6.5ft 10s 6s 16 18 mph 1014.8mb 81f 80f
9:50am 6ft 10s 6s 16 18 mph 1014.2mb 81f 80f
8:50am 6ft 10s 6s 16 18 mph 1013.6mb 81f 80f
7:50am 7ft 10s 7s 16 18 mph 1013.4mb 81f 80f